createdAt,value
2022-10-18T00:00:59.629Z,99.90
2022-10-18T00:03:27.092Z,99.90
2022-10-18T00:05:54.648Z,99.90
2022-10-18T00:08:22.173Z,99.90
2022-10-18T00:10:49.915Z,99.90
2022-10-18T00:13:18.020Z,99.90
2022-10-18T00:15:53.362Z,99.90
2022-10-18T00:18:20.993Z,99.90
2022-10-18T00:21:12.414Z,99.90
2022-10-18T00:23:39.989Z,99.90
2022-10-18T00:26:16.499Z,99.90
2022-10-18T00:28:44.901Z,1.00
2022-10-18T00:31:21.437Z,1.00
2022-10-18T00:33:52.475Z,1.00
2022-10-18T00:36:20.398Z,1.00
2022-10-18T00:38:48.520Z,1.00
2022-10-18T00:41:22.220Z,1.00
2022-10-18T00:44:01.692Z,1.00
2022-10-18T00:46:32.077Z,1.00
2022-10-18T00:49:02.490Z,1.00
2022-10-18T00:51:51.981Z,1.00
2022-10-18T00:54:20.782Z,1.00
2022-10-18T00:56:48.286Z,1.00
2022-10-18T00:59:17.581Z,1.00
2022-10-18T01:01:46.125Z,1.00
2022-10-18T01:04:18.017Z,1.00
2022-10-18T01:07:13.295Z,1.00
2022-10-18T01:10:01.864Z,1.00
2022-10-18T01:12:47.502Z,99.90
2022-10-18T01:15:20.547Z,99.90
2022-10-18T01:18:14.758Z,99.90
2022-10-18T01:21:00.650Z,99.90
2022-10-18T01:24:01.951Z,99.90
2022-10-18T01:26:38.490Z,99.90
2022-10-18T01:29:28.068Z,99.90
2022-10-18T01:32:12.767Z,99.90
2022-10-18T01:34:43.760Z,1.00
2022-10-18T01:37:17.052Z,1.00
2022-10-18T01:39:48.096Z,1.00
2022-10-18T01:42:19.226Z,1.00
2022-10-18T01:44:47.356Z,1.00
2022-10-18T01:47:15.841Z,62.80
2022-10-18T01:49:43.296Z,99.90
2022-10-18T01:52:15.579Z,99.90
2022-10-18T01:54:48.471Z,99.90
2022-10-18T01:57:21.823Z,99.90
2022-10-18T02:00:05.956Z,99.90
2022-10-18T02:02:42.449Z,1.00
2022-10-18T02:05:12.533Z,1.00
2022-10-18T02:08:21.972Z,1.00
2022-10-18T02:11:03.792Z,1.00
2022-10-18T02:13:37.143Z,25.60
2022-10-18T02:16:10.428Z,89.20
2022-10-18T02:18:42.424Z,63.50
2022-10-18T02:21:13.486Z,99.90
2022-10-18T02:23:40.847Z,99.90
2022-10-18T02:26:08.284Z,99.90
2022-10-18T02:28:35.710Z,99.90
2022-10-18T02:31:27.559Z,99.90
2022-10-18T02:34:04.856Z,99.90
2022-10-18T02:36:36.287Z,99.90
2022-10-18T02:39:11.836Z,99.90
2022-10-18T02:41:39.428Z,1.00
2022-10-18T02:44:06.859Z,1.00
2022-10-18T02:46:34.916Z,1.00
2022-10-18T02:49:02.382Z,1.00
2022-10-18T02:51:29.817Z,1.00
2022-10-18T02:53:57.231Z,1.00
2022-10-18T02:56:24.731Z,1.00
2022-10-18T02:58:52.091Z,99.90
2022-10-18T03:01:19.570Z,1.00
2022-10-18T03:03:47.136Z,99.90
2022-10-18T03:06:14.567Z,99.90
2022-10-18T03:08:41.970Z,99.90
2022-10-18T03:11:09.378Z,99.90
2022-10-18T03:13:36.949Z,99.90
2022-10-18T03:16:04.524Z,99.90
2022-10-18T03:18:31.900Z,99.90
2022-10-18T03:20:59.284Z,99.90
2022-10-18T03:23:26.620Z,99.90
2022-10-18T03:25:54.046Z,99.90
2022-10-18T03:28:21.481Z,99.90
2022-10-18T03:30:48.832Z,99.90
2022-10-18T03:33:16.273Z,99.90
2022-10-18T03:35:43.677Z,99.90
2022-10-18T03:38:11.085Z,99.90
2022-10-18T03:40:38.500Z,99.90
2022-10-18T03:43:05.934Z,99.90
2022-10-18T03:45:33.310Z,99.90
2022-10-18T03:48:00.781Z,99.90
2022-10-18T03:50:28.165Z,99.90
2022-10-18T03:52:55.746Z,99.90
2022-10-18T03:55:23.149Z,99.90
2022-10-18T03:57:50.938Z,99.90
2022-10-18T04:00:18.411Z,99.90
2022-10-18T04:02:45.871Z,99.90
2022-10-18T04:05:14.289Z,99.90
2022-10-18T04:07:41.718Z,99.90
2022-10-18T04:10:09.350Z,99.90
2022-10-18T04:12:36.761Z,99.90
2022-10-18T04:15:04.384Z,99.90
2022-10-18T04:17:31.988Z,99.90
2022-10-18T04:19:59.609Z,99.90
2022-10-18T04:22:27.019Z,99.90
2022-10-18T04:24:54.480Z,99.90
2022-10-18T04:27:21.888Z,99.90
2022-10-18T04:29:49.446Z,99.90
2022-10-18T04:32:16.914Z,99.90
2022-10-18T04:34:44.309Z,99.90
2022-10-18T04:37:11.669Z,99.90
2022-10-18T04:39:39.125Z,99.90
2022-10-18T04:42:06.624Z,99.90
2022-10-18T04:44:34.645Z,99.90
2022-10-18T04:47:02.150Z,99.90
2022-10-18T04:49:29.707Z,99.90
2022-10-18T04:51:57.243Z,99.90
2022-10-18T04:54:26.546Z,99.90
2022-10-18T04:56:56.092Z,99.90
2022-10-18T04:59:23.529Z,99.90
2022-10-18T05:01:51.070Z,99.90
2022-10-18T05:04:18.596Z,99.90
2022-10-18T05:06:46.205Z,99.90
2022-10-18T05:09:13.917Z,99.90
2022-10-18T05:11:41.377Z,99.90
2022-10-18T05:14:10.432Z,99.90
2022-10-18T05:16:37.900Z,99.90
2022-10-18T05:19:06.194Z,99.90
2022-10-18T05:21:34.228Z,99.90
2022-10-18T05:24:01.928Z,99.90
2022-10-18T05:26:29.440Z,99.90
2022-10-18T05:28:57.072Z,99.90
2022-10-18T05:31:24.539Z,99.90
2022-10-18T05:33:52.054Z,99.90
2022-10-18T05:36:19.509Z,99.90
2022-10-18T05:38:48.507Z,99.90
2022-10-18T05:41:16.087Z,99.90
2022-10-18T05:43:43.647Z,99.90
2022-10-18T05:46:15.361Z,99.90
2022-10-18T05:48:44.850Z,99.90
2022-10-18T05:51:12.506Z,99.90
2022-10-18T05:53:39.950Z,99.90
2022-10-18T05:56:08.081Z,56.50
2022-10-18T05:58:35.788Z,1.00
2022-10-18T06:01:05.624Z,1.00
2022-10-18T06:03:33.580Z,1.00
2022-10-18T06:06:02.788Z,1.00
2022-10-18T06:08:30.566Z,99.90
2022-10-18T06:10:58.093Z,99.90
2022-10-18T06:13:25.769Z,99.90
2022-10-18T06:15:57.590Z,99.90
2022-10-18T06:18:25.371Z,99.90
2022-10-18T06:20:59.795Z,99.90
2022-10-18T06:23:28.301Z,99.90
2022-10-18T06:26:04.602Z,99.90
2022-10-18T06:28:34.916Z,99.90
2022-10-18T06:31:03.352Z,99.90
2022-10-18T06:33:36.136Z,88.40
2022-10-18T06:36:10.618Z,53.10
2022-10-18T06:38:38.651Z,49.10
2022-10-18T06:41:07.097Z,53.50
2022-10-18T06:43:35.362Z,33.50
2022-10-18T06:46:05.807Z,33.40
2022-10-18T06:48:33.601Z,34.80
2022-10-18T06:51:03.846Z,45.10
2022-10-18T06:53:33.584Z,30.60
2022-10-18T06:56:10.348Z,17.60
2022-10-18T06:58:38.784Z,5.20
2022-10-18T07:01:16.044Z,1.00
2022-10-18T07:03:44.057Z,1.00
2022-10-18T07:06:14.392Z,1.00
2022-10-18T07:08:42.293Z,1.00
2022-10-18T07:11:32.237Z,1.00
2022-10-18T07:14:03.471Z,1.00
2022-10-18T07:16:32.443Z,1.00
2022-10-18T07:18:59.910Z,1.00
2022-10-18T07:21:28.309Z,1.00
2022-10-18T07:23:56.919Z,1.00
2022-10-18T07:26:30.593Z,1.00
2022-10-18T07:29:05.980Z,1.00
2022-10-18T07:31:33.788Z,1.00
2022-10-18T07:34:01.301Z,1.00
2022-10-18T07:36:28.714Z,1.00
2022-10-18T07:38:56.180Z,1.00
2022-10-18T07:41:23.738Z,1.00
2022-10-18T07:43:52.972Z,1.00
2022-10-18T07:46:22.417Z,1.00
2022-10-18T07:48:50.241Z,1.00
2022-10-18T07:51:19.255Z,1.00
2022-10-18T07:53:46.970Z,1.00
2022-10-18T07:56:17.181Z,1.00
2022-10-18T07:58:45.713Z,1.00
2022-10-18T08:01:14.570Z,1.00
2022-10-18T08:03:42.994Z,1.00
2022-10-18T08:06:12.681Z,1.00
2022-10-18T08:08:41.095Z,1.00
2022-10-18T08:11:15.170Z,1.00
2022-10-18T08:13:43.619Z,1.00
2022-10-18T08:16:13.571Z,1.00
2022-10-18T08:18:41.370Z,1.00
2022-10-18T08:21:10.881Z,1.00
2022-10-18T08:23:38.853Z,1.00
2022-10-18T08:26:11.629Z,1.00
2022-10-18T08:28:39.135Z,1.00
2022-10-18T08:31:10.170Z,1.00
2022-10-18T08:33:39.340Z,1.00
2022-10-18T08:36:08.490Z,1.00
2022-10-18T08:38:37.688Z,1.00
2022-10-18T08:41:35.988Z,1.00
2022-10-18T08:44:22.953Z,1.00
2022-10-18T08:47:00.643Z,1.00
2022-10-18T08:49:47.410Z,99.90
2022-10-18T08:52:26.897Z,99.90
2022-10-18T08:55:11.311Z,99.90
2022-10-18T08:57:38.722Z,99.90
2022-10-18T09:00:20.040Z,99.90
2022-10-18T09:02:56.332Z,99.90
2022-10-18T09:05:49.991Z,99.90
2022-10-18T09:08:39.116Z,99.90
2022-10-18T09:11:22.137Z,99.90
2022-10-18T09:14:04.736Z,99.90
2022-10-18T09:17:05.884Z,99.90
2022-10-18T09:19:46.100Z,99.90
2022-10-18T09:22:17.789Z,99.90
2022-10-18T09:25:10.602Z,99.90
2022-10-18T09:27:51.449Z,99.90
2022-10-18T09:30:30.378Z,99.90
2022-10-18T09:33:16.788Z,99.90
2022-10-18T09:36:05.167Z,99.90
2022-10-18T09:38:48.315Z,99.90
2022-10-18T09:41:47.357Z,99.90
2022-10-18T09:44:38.753Z,99.90
2022-10-18T09:47:17.100Z,99.90
2022-10-18T09:50:01.621Z,99.90
2022-10-18T09:52:37.297Z,99.90
2022-10-18T09:55:13.624Z,99.90
2022-10-18T09:57:46.777Z,99.90
2022-10-18T10:00:23.007Z,99.90
2022-10-18T10:02:50.431Z,99.90
2022-10-18T10:05:18.344Z,99.90
2022-10-18T10:07:47.898Z,99.90
2022-10-18T10:10:24.668Z,99.90
2022-10-18T10:13:24.684Z,99.90
2022-10-18T10:15:57.639Z,99.90
2022-10-18T10:18:31.621Z,99.90
2022-10-18T10:21:07.711Z,99.90
2022-10-18T10:23:55.497Z,99.90
2022-10-18T10:26:25.927Z,99.90
2022-10-18T10:28:53.572Z,99.90
2022-10-18T10:31:37.619Z,99.90
2022-10-18T10:34:29.270Z,99.90
2022-10-18T10:36:56.911Z,99.90
2022-10-18T10:39:25.005Z,99.90
2022-10-18T10:41:58.606Z,99.90
2022-10-18T10:44:32.171Z,99.90
2022-10-18T10:47:00.107Z,99.90
2022-10-18T10:49:42.536Z,99.90
2022-10-18T10:52:27.440Z,99.90
2022-10-18T10:55:23.233Z,99.90
2022-10-18T10:57:52.991Z,99.90
2022-10-18T11:00:52.925Z,99.90
2022-10-18T11:03:29.027Z,99.90
2022-10-18T11:06:00.531Z,99.90
2022-10-18T11:08:38.378Z,99.90
2022-10-18T11:11:41.554Z,99.90
2022-10-18T11:14:27.462Z,99.90
2022-10-18T11:17:14.068Z,99.90
2022-10-18T11:20:12.643Z,99.90
2022-10-18T11:22:46.560Z,99.90
2022-10-18T11:25:16.727Z,99.90
2022-10-18T11:27:44.020Z,99.90
2022-10-18T11:30:26.801Z,99.90
2022-10-18T11:33:02.191Z,99.90
2022-10-18T11:36:10.563Z,99.90
2022-10-18T11:38:40.728Z,99.90
2022-10-18T11:41:34.931Z,99.90
2022-10-18T11:44:10.314Z,99.90
2022-10-18T11:46:46.554Z,99.90
2022-10-18T11:49:37.773Z,99.90
2022-10-18T11:52:41.288Z,99.90
2022-10-18T11:55:39.527Z,99.90
2022-10-18T11:58:42.198Z,99.90
2022-10-18T12:01:35.119Z,99.90
2022-10-18T12:04:07.825Z,99.90
2022-10-18T12:06:38.939Z,99.90
2022-10-18T12:09:31.132Z,99.90
2022-10-18T12:12:08.965Z,99.90
2022-10-18T12:14:56.895Z,99.90
2022-10-18T12:17:51.462Z,99.90
2022-10-18T12:20:31.495Z,99.90
2022-10-18T12:23:17.699Z,99.90
2022-10-18T12:25:54.732Z,99.90
2022-10-18T12:28:22.072Z,99.90
2022-10-18T12:31:08.295Z,99.90
2022-10-18T12:33:39.782Z,99.90
2022-10-18T12:36:35.476Z,99.80
2022-10-18T12:39:07.627Z,99.90
2022-10-18T12:41:36.638Z,99.90
2022-10-18T12:44:25.149Z,99.90
2022-10-18T12:46:55.134Z,99.90
2022-10-18T12:49:39.023Z,99.90
2022-10-18T12:52:23.799Z,99.40
2022-10-18T12:55:13.927Z,98.40
2022-10-18T12:57:53.429Z,97.50
2022-10-18T13:00:29.969Z,99.10
2022-10-18T13:03:09.946Z,98.60
2022-10-18T13:05:55.526Z,98.40
2022-10-18T13:08:30.477Z,98.10
2022-10-18T13:11:12.980Z,97.20
2022-10-18T13:14:07.788Z,94.60
2022-10-18T13:16:59.305Z,95.00
2022-10-18T13:19:32.629Z,92.50
2022-10-18T13:22:24.078Z,92.10
2022-10-18T13:25:14.360Z,92.80
2022-10-18T13:28:29.240Z,92.60
2022-10-18T13:31:01.694Z,92.70
2022-10-18T13:33:39.557Z,92.70
2022-10-18T13:36:25.106Z,92.80
2022-10-18T13:38:58.161Z,91.60
2022-10-18T13:41:34.442Z,91.10
2022-10-18T13:44:02.947Z,92.20
2022-10-18T13:46:33.392Z,93.10
2022-10-18T13:49:22.683Z,93.40
2022-10-18T13:52:20.851Z,92.70
2022-10-18T13:55:03.074Z,93.20
2022-10-18T13:57:49.300Z,93.70
2022-10-18T14:00:25.214Z,93.90
2022-10-18T14:03:31.917Z,95.50
2022-10-18T14:06:40.219Z,97.50
2022-10-18T14:09:26.443Z,97.30
2022-10-18T14:12:22.279Z,94.40
2022-10-18T14:15:04.112Z,93.20
2022-10-18T14:17:44.875Z,94.10
2022-10-18T14:20:28.553Z,95.00
2022-10-18T14:23:20.463Z,94.60
2022-10-18T14:25:48.394Z,95.80
2022-10-18T14:28:27.455Z,96.00
2022-10-18T14:31:00.344Z,96.50
2022-10-18T14:33:27.800Z,97.00
2022-10-18T14:36:14.658Z,96.80
2022-10-18T14:38:59.349Z,97.00
2022-10-18T14:41:34.649Z,96.90
2022-10-18T14:44:27.840Z,97.00
2022-10-18T14:47:02.835Z,97.40
2022-10-18T14:49:31.004Z,96.50
2022-10-18T14:52:00.536Z,96.00
2022-10-18T14:54:33.917Z,96.10
2022-10-18T14:57:03.255Z,96.70
2022-10-18T14:59:34.866Z,97.10
2022-10-18T15:02:11.995Z,98.30
2022-10-18T15:04:39.431Z,99.40
2022-10-18T15:07:14.811Z,99.90
2022-10-18T15:09:43.596Z,99.90
2022-10-18T15:12:14.536Z,99.90
2022-10-18T15:14:42.567Z,99.90
2022-10-18T15:17:35.343Z,99.90
2022-10-18T15:20:18.864Z,99.90
2022-10-18T15:22:47.047Z,99.90
2022-10-18T15:25:17.251Z,99.90
2022-10-18T15:27:56.758Z,99.90
2022-10-18T15:30:44.044Z,99.90
2022-10-18T15:33:23.729Z,99.90
2022-10-18T15:35:53.364Z,99.90
2022-10-18T15:38:27.820Z,99.90
2022-10-18T15:40:55.697Z,99.90
2022-10-18T15:43:28.764Z,99.90
2022-10-18T15:46:06.743Z,99.90
2022-10-18T15:48:41.922Z,99.90
2022-10-18T15:51:16.921Z,99.90
2022-10-18T15:53:51.103Z,99.90
2022-10-18T15:56:37.646Z,99.90
2022-10-18T15:59:21.113Z,99.90
2022-10-18T16:01:49.217Z,99.90
2022-10-18T16:04:31.626Z,99.90
2022-10-18T16:07:00.264Z,99.90
2022-10-18T16:09:29.273Z,99.90
2022-10-18T16:11:58.481Z,99.90
2022-10-18T16:14:26.575Z,99.90
2022-10-18T16:17:03.251Z,99.90
2022-10-18T16:19:32.181Z,99.90
2022-10-18T16:22:06.018Z,99.90
2022-10-18T16:24:34.281Z,99.90
2022-10-18T16:27:01.875Z,99.90
2022-10-18T16:29:32.218Z,99.90
2022-10-18T16:32:01.425Z,99.90
2022-10-18T16:34:28.984Z,99.90
2022-10-18T16:36:56.622Z,99.90
2022-10-18T16:39:24.961Z,99.90
2022-10-18T16:41:52.745Z,99.90
2022-10-18T16:44:20.307Z,99.90
2022-10-18T16:46:51.100Z,99.90
2022-10-18T16:49:24.598Z,1.00
2022-10-18T16:51:53.900Z,1.00
2022-10-18T16:54:21.570Z,1.00
2022-10-18T16:56:50.412Z,1.00
2022-10-18T16:59:29.073Z,1.00
2022-10-18T17:01:56.713Z,1.00
2022-10-18T17:04:24.611Z,1.00
2022-10-18T17:06:54.621Z,1.00
2022-10-18T17:09:22.119Z,1.00
2022-10-18T17:11:50.184Z,1.00
2022-10-18T17:14:17.592Z,1.00
2022-10-18T17:16:47.087Z,1.00
2022-10-18T17:19:18.177Z,14.10
2022-10-18T17:21:45.614Z,41.50
2022-10-18T17:24:12.962Z,93.10
2022-10-18T17:26:40.427Z,99.90
2022-10-18T17:29:11.189Z,99.90
2022-10-18T17:31:38.607Z,99.90
2022-10-18T17:34:06.080Z,99.90
2022-10-18T17:36:34.037Z,99.90
2022-10-18T17:39:02.174Z,99.90
2022-10-18T17:41:29.605Z,99.90
2022-10-18T17:43:57.462Z,99.90
2022-10-18T17:46:24.934Z,99.90
2022-10-18T17:48:53.248Z,99.90
2022-10-18T17:51:20.798Z,99.90
2022-10-18T17:53:48.323Z,99.90
2022-10-18T17:56:16.601Z,99.90
2022-10-18T17:58:44.022Z,99.90
2022-10-18T18:01:15.001Z,99.90
2022-10-18T18:03:42.913Z,99.90
2022-10-18T18:06:21.762Z,99.90
2022-10-18T18:08:50.344Z,99.90
2022-10-18T18:11:18.147Z,99.90
2022-10-18T18:13:45.698Z,99.90
2022-10-18T18:16:17.675Z,99.90
2022-10-18T18:18:45.945Z,99.90
2022-10-18T18:21:13.734Z,99.90
2022-10-18T18:23:42.042Z,1.00
2022-10-18T18:26:09.688Z,1.00
2022-10-18T18:28:37.509Z,99.90
2022-10-18T18:31:11.611Z,99.90
2022-10-18T18:33:39.242Z,99.90
2022-10-18T18:36:07.543Z,99.90
2022-10-18T18:38:38.238Z,99.90
2022-10-18T18:41:17.781Z,99.90
2022-10-18T18:44:04.530Z,99.90
2022-10-18T18:46:36.912Z,1.00
2022-10-18T18:49:06.071Z,1.00
2022-10-18T18:51:34.072Z,1.00
2022-10-18T18:54:01.728Z,1.00
2022-10-18T18:56:29.323Z,1.00
2022-10-18T18:58:59.376Z,1.00
2022-10-18T19:01:29.968Z,1.00
2022-10-18T19:03:59.196Z,1.00
2022-10-18T19:06:29.648Z,1.00
2022-10-18T19:09:02.974Z,1.00
2022-10-18T19:11:36.048Z,34.20
2022-10-18T19:14:04.985Z,42.00
2022-10-18T19:16:35.520Z,52.30
2022-10-18T19:19:13.422Z,89.90
2022-10-18T19:21:46.381Z,67.20
2022-10-18T19:24:14.329Z,18.20
2022-10-18T19:26:47.396Z,94.40
2022-10-18T19:29:35.469Z,93.70
2022-10-18T19:32:07.290Z,99.90
2022-10-18T19:34:35.909Z,99.90
2022-10-18T19:37:03.909Z,99.90
2022-10-18T19:39:34.163Z,99.90
2022-10-18T19:42:05.370Z,99.90
2022-10-18T19:44:33.958Z,99.90
2022-10-18T19:47:01.951Z,99.90
2022-10-18T19:49:29.531Z,99.90
2022-10-18T19:51:57.455Z,99.90
2022-10-18T19:54:25.739Z,99.90
2022-10-18T19:56:53.369Z,99.90
2022-10-18T19:59:22.400Z,99.90
2022-10-18T20:01:50.419Z,99.90
2022-10-18T20:04:18.285Z,99.90
2022-10-18T20:06:45.882Z,99.90
2022-10-18T20:09:17.741Z,99.90
2022-10-18T20:11:48.010Z,99.90
2022-10-18T20:14:15.449Z,1.00
2022-10-18T20:16:42.951Z,1.00
2022-10-18T20:19:11.808Z,1.00
2022-10-18T20:21:40.081Z,1.00
2022-10-18T20:24:09.455Z,1.00
2022-10-18T20:26:36.963Z,77.80
2022-10-18T20:29:05.085Z,99.90
2022-10-18T20:31:37.223Z,99.90
2022-10-18T20:34:08.011Z,99.90
2022-10-18T20:36:35.879Z,99.90
2022-10-18T20:39:05.342Z,1.00
2022-10-18T20:41:35.910Z,1.00
2022-10-18T20:44:07.245Z,1.00
2022-10-18T20:46:37.597Z,1.00
2022-10-18T20:49:06.932Z,99.90
2022-10-18T20:51:35.486Z,99.90
2022-10-18T20:56:34.441Z,99.90
2022-10-18T20:59:02.853Z,1.00
2022-10-18T21:01:32.545Z,1.00
2022-10-18T21:04:04.957Z,1.00
2022-10-18T21:06:37.460Z,99.90
2022-10-18T21:09:11.084Z,99.90
2022-10-18T21:11:40.660Z,99.90
2022-10-18T21:14:10.998Z,99.90
2022-10-18T21:16:38.401Z,1.00
2022-10-18T21:19:18.136Z,1.00
2022-10-18T21:21:49.622Z,1.00
2022-10-18T21:24:18.295Z,1.00
2022-10-18T21:26:45.850Z,1.00
2022-10-18T21:29:15.209Z,1.00
2022-10-18T21:31:46.356Z,1.00
2022-10-18T21:34:15.928Z,1.00
2022-10-18T21:36:45.533Z,1.00
2022-10-18T21:39:18.778Z,1.00
2022-10-18T21:41:46.933Z,72.00
2022-10-18T21:44:15.186Z,99.90
2022-10-18T21:46:43.410Z,1.00
2022-10-18T21:49:10.966Z,99.90
2022-10-18T21:51:39.117Z,99.90
2022-10-18T21:54:11.305Z,99.90
2022-10-18T21:56:38.954Z,1.00
2022-10-18T21:59:06.545Z,1.00
2022-10-18T22:01:38.732Z,99.90
2022-10-18T22:04:08.525Z,99.90
2022-10-18T22:06:36.871Z,99.90
2022-10-18T22:09:07.448Z,1.00
2022-10-18T22:11:38.597Z,77.10
2022-10-18T22:14:05.992Z,99.90
2022-10-18T22:16:33.518Z,99.90
2022-10-18T22:19:02.647Z,1.00
2022-10-18T22:21:30.495Z,14.20
2022-10-18T22:23:58.934Z,99.90
2022-10-18T22:26:29.411Z,99.90
2022-10-18T22:29:01.741Z,99.90
2022-10-18T22:31:32.249Z,99.90
2022-10-18T22:34:05.323Z,1.00
2022-10-18T22:36:34.525Z,1.00
2022-10-18T22:39:02.764Z,80.70
2022-10-18T22:41:30.489Z,99.90
2022-10-18T22:43:59.831Z,99.90
2022-10-18T22:46:30.418Z,99.90
2022-10-18T22:48:58.000Z,99.90
2022-10-18T22:51:25.653Z,99.90
2022-10-18T22:53:53.502Z,99.90
2022-10-18T22:56:22.509Z,1.00
2022-10-18T22:58:50.578Z,1.00
2022-10-18T23:01:21.143Z,1.00
2022-10-18T23:03:57.084Z,1.00
2022-10-18T23:06:33.095Z,1.00
2022-10-18T23:09:06.537Z,1.00
2022-10-18T23:11:35.052Z,1.00
2022-10-18T23:14:04.535Z,1.00
2022-10-18T23:16:32.612Z,1.00
2022-10-18T23:19:00.449Z,1.00
2022-10-18T23:21:29.219Z,1.00
2022-10-18T23:23:57.414Z,1.00
2022-10-18T23:26:27.565Z,1.00
2022-10-18T23:28:56.231Z,1.00
2022-10-18T23:31:29.576Z,1.00
2022-10-18T23:33:59.448Z,1.00
2022-10-18T23:36:27.660Z,1.00
2022-10-18T23:38:55.616Z,1.00
2022-10-18T23:41:23.497Z,1.00
2022-10-18T23:43:51.321Z,1.00
2022-10-18T23:46:19.979Z,1.00
2022-10-18T23:48:47.922Z,1.00
2022-10-18T23:51:15.929Z,1.00
2022-10-18T23:53:43.766Z,1.00
2022-10-18T23:56:13.424Z,1.00
2022-10-18T23:58:41.486Z,1.00
